createdAt,value
2017-04-24T00:00:29.757Z,0
2017-04-24T00:01:29.420Z,0
2017-04-24T00:02:29.761Z,0
2017-04-24T00:03:29.982Z,0
2017-04-24T00:04:29.972Z,0
2017-04-24T00:05:29.928Z,0
2017-04-24T00:06:29.912Z,0
2017-04-24T00:07:29.873Z,0
2017-04-24T00:08:29.869Z,0
2017-04-24T00:09:29.829Z,0
2017-04-24T00:10:29.516Z,0
2017-04-24T00:11:29.824Z,0
2017-04-24T00:12:29.750Z,0
2017-04-24T00:13:29.728Z,0
2017-04-24T00:14:29.709Z,0
2017-04-24T00:15:29.679Z,0
2017-04-24T00:16:29.701Z,0
2017-04-24T00:17:29.623Z,0
2017-04-24T00:18:29.301Z,0
2017-04-24T00:19:29.569Z,0
2017-04-24T00:20:29.255Z,0
2017-04-24T00:21:29.536Z,0
2017-04-24T00:22:29.498Z,0
2017-04-24T00:23:29.473Z,0
2017-04-24T00:24:29.444Z,0
2017-04-24T00:25:29.419Z,0
2017-04-24T00:26:29.406Z,0
2017-04-24T00:27:29.380Z,0
2017-04-24T00:28:29.352Z,0
2017-04-24T00:29:29.317Z,0
2017-04-24T00:30:29.351Z,0
2017-04-24T00:31:29.270Z,0
2017-04-24T00:32:29.234Z,0
2017-04-24T00:33:29.214Z,0
2017-04-24T00:34:29.214Z,0
2017-04-24T00:35:28.863Z,0
2017-04-24T00:36:29.132Z,0
2017-04-24T00:37:29.157Z,0
2017-04-24T00:38:29.093Z,0
2017-04-24T00:39:29.061Z,0
2017-04-24T00:40:29.040Z,0
2017-04-24T00:41:29.007Z,0
2017-04-24T00:42:28.983Z,0
2017-04-24T00:43:29.005Z,0
2017-04-24T00:44:28.646Z,0
2017-04-24T00:45:28.955Z,0
2017-04-24T00:46:28.888Z,0
2017-04-24T00:47:28.860Z,0
2017-04-24T00:48:28.834Z,0
2017-04-24T00:49:28.529Z,0
2017-04-24T00:50:28.791Z,0
2017-04-24T00:51:28.774Z,0
2017-04-24T00:52:28.731Z,0
2017-04-24T00:53:28.703Z,0
2017-04-24T00:54:28.674Z,0
2017-04-24T00:55:28.667Z,0
2017-04-24T00:56:28.623Z,0
2017-04-24T00:57:28.601Z,0
2017-04-24T00:58:28.277Z,0
2017-04-24T00:59:28.553Z,0
2017-04-24T01:00:28.580Z,0
2017-04-24T01:01:28.497Z,0
2017-04-24T01:02:28.474Z,0
2017-04-24T01:03:28.470Z,0
2017-04-24T01:04:28.126Z,0
2017-04-24T01:05:28.396Z,0
2017-04-24T01:06:28.380Z,0
2017-04-24T01:07:28.346Z,0
2017-04-24T01:08:28.326Z,0
2017-04-24T01:09:28.301Z,0
2017-04-24T01:10:28.272Z,0
2017-04-24T01:11:28.246Z,0
2017-04-24T01:12:28.222Z,0
2017-04-24T01:13:28.193Z,0
2017-04-24T01:14:28.156Z,0
2017-04-24T01:15:28.146Z,0
2017-04-24T01:16:28.187Z,0
2017-04-24T01:17:28.096Z,0
2017-04-24T01:18:28.071Z,0
2017-04-24T01:19:28.094Z,0
2017-04-24T01:20:28.015Z,0
2017-04-24T01:21:27.991Z,0
2017-04-24T01:22:27.966Z,0
2017-04-24T01:23:27.951Z,0
2017-04-24T01:24:27.923Z,0
2017-04-24T01:25:27.881Z,0
2017-04-24T01:26:27.868Z,0
2017-04-24T01:27:27.834Z,0
2017-04-24T01:28:27.859Z,0
2017-04-24T01:29:27.785Z,0
2017-04-24T01:30:27.761Z,0
2017-04-24T01:31:28.031Z,0
2017-04-24T01:32:27.707Z,0
2017-04-24T01:33:27.687Z,0
2017-04-24T01:34:27.669Z,0
2017-04-24T01:35:27.620Z,0
2017-04-24T01:36:27.611Z,0
2017-04-24T01:37:27.270Z,0
2017-04-24T01:38:27.798Z,0
2017-04-24T01:39:27.527Z,0
2017-04-24T01:40:27.503Z,0
2017-04-24T01:41:27.467Z,0
2017-04-24T01:42:27.503Z,0
2017-04-24T01:43:27.424Z,0
2017-04-24T01:44:27.407Z,0
2017-04-24T01:45:27.387Z,0
2017-04-24T01:46:27.344Z,0
2017-04-24T01:47:27.023Z,0
2017-04-24T01:48:27.322Z,0
2017-04-24T01:49:27.327Z,0
2017-04-24T01:50:26.937Z,0
2017-04-24T01:51:27.212Z,0
2017-04-24T01:52:27.246Z,0
2017-04-24T01:53:27.163Z,0
2017-04-24T01:54:27.145Z,0
2017-04-24T01:55:27.113Z,0
2017-04-24T01:56:27.086Z,0
2017-04-24T01:57:27.071Z,0
2017-04-24T01:58:27.048Z,0
2017-04-24T01:59:27.233Z,0
2017-04-24T02:00:26.985Z,0
2017-04-24T02:01:26.952Z,0
2017-04-24T02:02:26.931Z,0
2017-04-24T02:03:26.918Z,0
2017-04-24T02:04:26.876Z,0
2017-04-24T02:05:26.864Z,0
2017-04-24T02:06:26.853Z,0
2017-04-24T02:07:26.799Z,0
2017-04-24T02:08:26.807Z,0
2017-04-24T02:09:26.764Z,0
2017-04-24T02:10:26.733Z,0
2017-04-24T02:11:26.707Z,0
2017-04-24T02:12:26.684Z,0
2017-04-24T02:13:26.659Z,0
2017-04-24T02:14:26.628Z,0
2017-04-24T02:15:26.595Z,0
2017-04-24T02:16:26.578Z,0
2017-04-24T02:17:26.555Z,0
2017-04-24T02:18:26.515Z,0
2017-04-24T02:19:26.494Z,0
2017-04-24T02:20:26.469Z,0
2017-04-24T02:21:26.439Z,0
2017-04-24T02:22:26.116Z,0
2017-04-24T02:23:26.388Z,0
2017-04-24T02:24:26.380Z,0
2017-04-24T02:25:26.335Z,0
2017-04-24T02:26:26.362Z,0
2017-04-24T02:27:26.283Z,0
2017-04-24T02:28:26.267Z,0
2017-04-24T02:29:26.240Z,0
2017-04-24T02:30:26.289Z,0
2017-04-24T02:31:26.505Z,0
2017-04-24T02:32:26.166Z,0
2017-04-24T02:33:26.143Z,0
2017-04-24T02:34:26.112Z,0
2017-04-24T02:35:25.783Z,0
2017-04-24T02:36:26.054Z,0
2017-04-24T02:37:26.022Z,0
2017-04-24T02:38:26.025Z,0
2017-04-24T02:39:25.996Z,0
2017-04-24T02:40:25.960Z,0
2017-04-24T02:41:25.931Z,0
2017-04-24T02:42:25.904Z,0
2017-04-24T02:43:25.929Z,0
2017-04-24T02:44:25.848Z,0
2017-04-24T02:45:25.818Z,0
2017-04-24T02:46:25.792Z,0
2017-04-24T02:47:25.818Z,0
2017-04-24T02:48:25.746Z,0
2017-04-24T02:49:25.768Z,0
2017-04-24T02:50:25.698Z,0
2017-04-24T02:51:25.650Z,0
2017-04-24T02:52:25.639Z,0
2017-04-24T02:53:25.668Z,0
2017-04-24T02:54:25.881Z,0
2017-04-24T02:55:25.558Z,0
2017-04-24T02:56:25.541Z,0
2017-04-24T02:57:25.508Z,0
2017-04-24T02:58:25.481Z,0
2017-04-24T02:59:25.463Z,0
2017-04-24T03:00:25.423Z,0
2017-04-24T03:01:25.413Z,0
2017-04-24T03:02:25.402Z,0
2017-04-24T03:03:25.357Z,0
2017-04-24T03:04:25.332Z,0
2017-04-24T03:05:25.309Z,0
2017-04-24T03:06:25.281Z,0
2017-04-24T03:07:25.254Z,0
2017-04-24T03:08:25.225Z,0
2017-04-24T03:09:25.202Z,0
2017-04-24T03:10:25.170Z,0
2017-04-24T03:11:25.147Z,0
2017-04-24T03:12:25.114Z,0
2017-04-24T03:13:25.126Z,0
2017-04-24T03:14:25.070Z,0
2017-04-24T03:15:25.036Z,0
2017-04-24T03:16:25.063Z,0
2017-04-24T03:17:24.988Z,0
2017-04-24T03:18:24.966Z,0
2017-04-24T03:19:24.953Z,0
2017-04-24T03:20:24.908Z,0
2017-04-24T03:21:24.893Z,0
2017-04-24T03:22:24.610Z,0
2017-04-24T03:23:24.533Z,0
2017-04-24T03:24:24.823Z,0
2017-04-24T03:25:24.779Z,0
2017-04-24T03:26:24.780Z,0
2017-04-24T03:27:24.779Z,0
2017-04-24T03:28:24.706Z,0
2017-04-24T03:29:24.685Z,0
2017-04-24T03:30:24.647Z,0
2017-04-24T03:31:24.622Z,0
2017-04-24T03:32:24.595Z,0
2017-04-24T03:33:24.281Z,0
2017-04-24T03:34:24.246Z,0
2017-04-24T03:35:24.531Z,0
2017-04-24T03:36:24.494Z,0
2017-04-24T03:37:24.481Z,0
2017-04-24T03:38:24.445Z,0
2017-04-24T03:39:24.420Z,0
2017-04-24T03:40:24.450Z,0
2017-04-24T03:41:24.366Z,0
2017-04-24T03:42:24.339Z,0
2017-04-24T03:43:24.324Z,0
2017-04-24T03:44:24.333Z,0
2017-04-24T03:45:24.274Z,0
2017-04-24T03:46:24.230Z,0
2017-04-24T03:47:24.205Z,0
2017-04-24T03:48:24.183Z,0
2017-04-24T03:49:24.209Z,0
2017-04-24T03:50:24.147Z,0
2017-04-24T03:51:24.101Z,0
2017-04-24T03:52:24.078Z,0
2017-04-24T03:53:24.052Z,0
2017-04-24T03:54:24.022Z,0
2017-04-24T03:55:23.999Z,0
2017-04-24T03:56:23.976Z,0
2017-04-24T03:57:23.999Z,0
2017-04-24T03:58:23.927Z,0
2017-04-24T03:59:23.898Z,0
2017-04-24T04:00:23.871Z,0
2017-04-24T04:01:23.546Z,0
2017-04-24T04:02:23.813Z,0
2017-04-24T04:03:23.804Z,0
2017-04-24T04:04:23.771Z,0
2017-04-24T04:05:23.746Z,0
2017-04-24T04:06:23.723Z,5
2017-04-24T04:07:23.933Z,5
2017-04-24T04:08:23.662Z,5
2017-04-24T04:09:23.640Z,5
2017-04-24T04:10:23.609Z,5
2017-04-24T04:11:23.578Z,5
2017-04-24T04:12:23.557Z,5
2017-04-24T04:13:23.531Z,10
2017-04-24T04:14:23.502Z,10
2017-04-24T04:15:23.483Z,10
2017-04-24T04:16:23.450Z,10
2017-04-24T04:17:23.429Z,10
2017-04-24T04:18:23.422Z,15
2017-04-24T04:19:23.375Z,15
2017-04-24T04:20:23.345Z,15
2017-04-24T04:21:23.326Z,15
2017-04-24T04:22:23.293Z,20
2017-04-24T04:23:23.296Z,20
2017-04-24T04:24:23.254Z,20
2017-04-24T04:25:23.223Z,25
2017-04-24T04:26:23.197Z,25
2017-04-24T04:27:23.165Z,25
2017-04-24T04:28:22.841Z,30
2017-04-24T04:29:23.168Z,30
2017-04-24T04:30:23.087Z,35
2017-04-24T04:31:23.072Z,35
2017-04-24T04:32:23.036Z,40
2017-04-24T04:33:23.011Z,40
2017-04-24T04:34:22.988Z,40
2017-04-24T04:35:22.967Z,45
2017-04-24T04:36:22.986Z,55
2017-04-24T04:37:22.914Z,55
2017-04-24T04:38:22.882Z,60
2017-04-24T04:39:22.863Z,65
2017-04-24T04:40:22.828Z,70
2017-04-24T04:41:22.806Z,70
2017-04-24T04:42:22.778Z,75
2017-04-24T04:43:22.765Z,80
2017-04-24T04:44:22.737Z,85
2017-04-24T04:45:22.705Z,90
2017-04-24T04:46:22.684Z,95
2017-04-24T04:47:22.654Z,100
2017-04-24T04:48:22.926Z,105
2017-04-24T04:49:22.326Z,115
2017-04-24T04:50:22.576Z,120
2017-04-24T04:51:22.553Z,125
2017-04-24T04:52:22.568Z,135
2017-04-24T04:53:22.497Z,140
2017-04-24T04:54:22.482Z,140
2017-04-24T04:55:22.444Z,145
2017-04-24T04:56:22.429Z,150
2017-04-24T04:57:22.406Z,155
2017-04-24T04:58:22.431Z,160
2017-04-24T04:59:22.358Z,170
2017-04-24T05:00:22.330Z,165
2017-04-24T05:01:22.303Z,170
2017-04-24T05:02:22.278Z,170
2017-04-24T05:03:22.260Z,170
2017-04-24T05:04:22.236Z,165
2017-04-24T05:05:22.219Z,165
2017-04-24T05:06:21.884Z,125
2017-04-24T05:07:22.180Z,125
2017-04-24T05:08:21.837Z,140
2017-04-24T05:09:22.167Z,170
2017-04-24T05:10:22.089Z,170
2017-04-24T05:11:22.070Z,170
2017-04-24T05:12:22.092Z,160
2017-04-24T05:13:22.019Z,175
2017-04-24T05:14:21.997Z,155
2017-04-24T05:15:21.972Z,145
2017-04-24T05:16:21.952Z,145
2017-04-24T05:17:21.925Z,175
2017-04-24T05:18:21.898Z,165
2017-04-24T05:19:21.932Z,120
2017-04-24T05:20:21.847Z,115
2017-04-24T05:21:21.828Z,115
2017-04-24T05:22:21.803Z,120
2017-04-24T05:23:21.800Z,115
2017-04-24T05:24:21.455Z,115
2017-04-24T05:25:21.466Z,120
2017-04-24T05:26:21.708Z,125
2017-04-24T05:27:21.685Z,125
2017-04-24T05:28:21.670Z,130
2017-04-24T05:29:21.637Z,130
2017-04-24T05:30:21.621Z,135
2017-04-24T05:31:21.591Z,130
2017-04-24T05:32:21.575Z,125
2017-04-24T05:33:21.550Z,125
2017-04-24T05:34:21.529Z,130
2017-04-24T05:35:21.495Z,130
2017-04-24T05:36:21.472Z,135
2017-04-24T05:37:21.459Z,140
2017-04-24T05:38:21.440Z,145
2017-04-24T05:39:21.420Z,145
2017-04-24T05:40:21.379Z,150
2017-04-24T05:41:21.354Z,150
2017-04-24T05:42:21.327Z,160
2017-04-24T05:43:21.308Z,160
2017-04-24T05:44:20.977Z,170
2017-04-24T05:45:21.263Z,175
2017-04-24T05:46:21.244Z,175
2017-04-24T05:47:20.909Z,185
2017-04-24T05:48:21.183Z,195
2017-04-24T05:49:21.179Z,200
2017-04-24T05:50:21.139Z,205
2017-04-24T05:51:21.168Z,215
2017-04-24T05:52:21.091Z,225
2017-04-24T05:53:20.460Z,235
2017-04-24T05:54:21.051Z,245
2017-04-24T05:55:21.021Z,250
2017-04-24T05:56:21.009Z,265
2017-04-24T05:57:20.971Z,270
2017-04-24T05:58:20.952Z,280
2017-04-24T05:59:20.639Z,295
2017-04-24T06:00:20.909Z,340
2017-04-24T06:01:20.902Z,310
2017-04-24T06:02:20.553Z,310
2017-04-24T06:03:20.843Z,345
2017-04-24T06:04:20.807Z,300
2017-04-24T06:05:20.782Z,280
2017-04-24T06:06:20.761Z,270
2017-04-24T06:07:20.742Z,255
2017-04-24T06:08:20.719Z,250
2017-04-24T06:09:20.694Z,250
2017-04-24T06:10:20.669Z,220
2017-04-24T06:11:20.362Z,205
2017-04-24T06:12:20.621Z,190
2017-04-24T06:13:20.306Z,185
2017-04-24T06:14:20.588Z,180
2017-04-24T06:15:20.247Z,175
2017-04-24T06:16:20.519Z,170
2017-04-24T06:17:20.507Z,170
2017-04-24T06:18:20.483Z,170
2017-04-24T06:19:20.464Z,170
2017-04-24T06:20:20.685Z,160
2017-04-24T06:21:20.489Z,155
2017-04-24T06:22:20.391Z,155
2017-04-24T06:23:20.077Z,150
2017-04-24T06:24:20.405Z,145
2017-04-24T06:25:20.322Z,145
2017-04-24T06:26:19.987Z,155
2017-04-24T06:27:20.273Z,180
2017-04-24T06:28:20.253Z,190
2017-04-24T06:29:20.230Z,205
2017-04-24T06:30:20.509Z,225
2017-04-24T06:31:20.171Z,240
2017-04-24T06:32:20.161Z,245
2017-04-24T06:33:19.839Z,245
2017-04-24T06:34:20.137Z,250
2017-04-24T06:35:20.089Z,255
2017-04-24T06:36:20.064Z,260
2017-04-24T06:37:20.037Z,260
2017-04-24T06:38:20.031Z,260
2017-04-24T06:39:19.686Z,270
2017-04-24T06:40:19.976Z,270
2017-04-24T06:41:19.941Z,275
2017-04-24T06:42:19.928Z,270
2017-04-24T06:43:19.897Z,270
2017-04-24T06:44:19.886Z,275
2017-04-24T06:45:19.853Z,275
2017-04-24T06:46:19.830Z,280
2017-04-24T06:47:19.816Z,285
2017-04-24T06:48:19.786Z,300
2017-04-24T06:49:19.764Z,295
2017-04-24T06:50:19.729Z,295
2017-04-24T06:51:19.725Z,295
2017-04-24T06:52:19.696Z,300
2017-04-24T06:53:19.672Z,295
2017-04-24T06:54:19.651Z,295
2017-04-24T06:55:19.629Z,290
2017-04-24T06:56:19.646Z,280
2017-04-24T06:57:19.582Z,270
2017-04-24T06:58:19.567Z,255
2017-04-24T06:59:19.544Z,250
2017-04-24T07:00:19.526Z,240
2017-04-24T07:01:19.479Z,240
2017-04-24T07:02:19.464Z,240
2017-04-24T07:03:19.445Z,255
2017-04-24T07:04:19.122Z,265
2017-04-24T07:05:19.399Z,275
2017-04-24T07:06:19.371Z,280
2017-04-24T07:07:19.349Z,275
2017-04-24T07:08:19.334Z,280
2017-04-24T07:09:19.366Z,285
2017-04-24T07:10:19.292Z,295
2017-04-24T07:11:19.253Z,305
2017-04-24T07:12:19.244Z,305
2017-04-24T07:13:19.220Z,300
2017-04-24T07:14:19.205Z,305
2017-04-24T07:15:19.166Z,315
2017-04-24T07:16:19.145Z,315
2017-04-24T07:17:18.828Z,310
2017-04-24T07:18:19.121Z,320
2017-04-24T07:19:19.075Z,320
2017-04-24T07:20:19.054Z,290
2017-04-24T07:21:19.035Z,270
2017-04-24T07:22:19.023Z,270
2017-04-24T07:23:18.992Z,275
2017-04-24T07:24:18.665Z,305
2017-04-24T07:25:18.945Z,335
2017-04-24T07:26:18.611Z,310
2017-04-24T07:27:18.899Z,270
2017-04-24T07:28:18.874Z,270
2017-04-24T07:29:18.889Z,285
2017-04-24T07:30:18.832Z,295
2017-04-24T07:31:18.864Z,280
2017-04-24T07:32:18.785Z,285
2017-04-24T07:33:18.454Z,290
2017-04-24T07:34:18.746Z,335
2017-04-24T07:35:18.715Z,385
2017-04-24T07:36:18.697Z,415
2017-04-24T07:37:18.434Z,425
2017-04-24T07:38:18.356Z,435
2017-04-24T07:39:18.629Z,415
2017-04-24T07:40:18.599Z,390
2017-04-24T07:41:18.586Z,365
2017-04-24T07:42:18.573Z,370
2017-04-24T07:43:18.235Z,400
2017-04-24T07:44:18.516Z,380
2017-04-24T07:45:18.494Z,325
2017-04-24T07:46:18.475Z,305
2017-04-24T07:47:18.446Z,330
2017-04-24T07:48:18.135Z,345
2017-04-24T07:49:18.409Z,380
2017-04-24T07:50:18.379Z,445
2017-04-24T07:51:18.365Z,505
2017-04-24T07:52:18.369Z,515
2017-04-24T07:53:18.334Z,495
2017-04-24T07:54:18.291Z,515
2017-04-24T07:55:18.271Z,575
2017-04-24T07:56:17.952Z,620
2017-04-24T07:57:17.934Z,505
2017-04-24T07:58:18.222Z,515
2017-04-24T07:59:18.194Z,515
2017-04-24T08:00:17.865Z,505
2017-04-24T08:01:18.140Z,475
2017-04-24T08:02:17.811Z,445
2017-04-24T08:03:17.824Z,425
2017-04-24T08:04:18.095Z,395
2017-04-24T08:05:18.063Z,390
2017-04-24T08:06:18.039Z,415
2017-04-24T08:07:18.012Z,445
2017-04-24T08:08:17.695Z,510
2017-04-24T08:09:17.972Z,595
2017-04-24T08:10:17.972Z,600
2017-04-24T08:11:17.634Z,535
2017-04-24T08:12:17.916Z,485
2017-04-24T08:13:17.896Z,505
2017-04-24T08:14:17.865Z,540
2017-04-24T08:15:17.848Z,520
2017-04-24T08:16:17.828Z,555
2017-04-24T08:17:17.809Z,500
2017-04-24T08:18:17.796Z,525
2017-04-24T08:19:17.764Z,590
2017-04-24T08:20:17.737Z,620
2017-04-24T08:21:17.733Z,690
2017-04-24T08:22:17.711Z,1390
2017-04-24T08:23:17.682Z,905
2017-04-24T08:24:17.659Z,775
2017-04-24T08:25:17.629Z,770
2017-04-24T08:26:17.614Z,885
2017-04-24T08:27:17.588Z,905
2017-04-24T08:28:17.577Z,710
2017-04-24T08:29:17.568Z,675
2017-04-24T08:30:17.537Z,795
2017-04-24T08:31:17.515Z,1525
2017-04-24T08:32:17.488Z,800
2017-04-24T08:33:17.674Z,775
2017-04-24T08:34:17.450Z,795
2017-04-24T08:35:17.423Z,1195
2017-04-24T08:36:17.407Z,1000
2017-04-24T08:37:17.101Z,950
2017-04-24T08:38:17.076Z,1400
2017-04-24T08:39:17.357Z,1000
2017-04-24T08:40:17.330Z,770
2017-04-24T08:41:17.013Z,1120
2017-04-24T08:42:17.297Z,1345
2017-04-24T08:43:17.345Z,1255
2017-04-24T08:44:17.266Z,1200
2017-04-24T08:45:17.238Z,1145
2017-04-24T08:46:17.221Z,715
2017-04-24T08:47:17.203Z,700
2017-04-24T08:48:17.191Z,1340
2017-04-24T08:49:17.167Z,1065
2017-04-24T08:50:17.152Z,1940
2017-04-24T08:51:16.837Z,1905
2017-04-24T08:52:17.117Z,1730
2017-04-24T08:53:17.115Z,1650
2017-04-24T08:54:17.096Z,1600
2017-04-24T08:55:17.067Z,1665
2017-04-24T08:56:17.103Z,1135
2017-04-24T08:57:17.041Z,865
2017-04-24T08:58:17.023Z,940
2017-04-24T08:59:17.056Z,1730
2017-04-24T09:00:16.736Z,1690
2017-04-24T09:01:16.965Z,1660
2017-04-24T09:02:16.954Z,1675
2017-04-24T09:03:16.648Z,1675
2017-04-24T09:04:16.936Z,1695
2017-04-24T09:05:16.904Z,1615
2017-04-24T09:06:16.903Z,1625
2017-04-24T09:07:16.880Z,1620
2017-04-24T09:08:16.876Z,1650
2017-04-24T09:09:16.864Z,1675
2017-04-24T09:10:16.846Z,1660
2017-04-24T09:11:16.235Z,1655
2017-04-24T09:12:16.820Z,1685
2017-04-24T09:13:16.511Z,1715
2017-04-24T09:14:16.799Z,1750
2017-04-24T09:15:16.832Z,1770
2017-04-24T09:16:16.780Z,1715
2017-04-24T09:17:16.754Z,1620
2017-04-24T09:18:16.448Z,1710
2017-04-24T09:19:16.735Z,1755
2017-04-24T09:20:16.711Z,1725
2017-04-24T09:21:16.717Z,1700
2017-04-24T09:22:16.691Z,1685
2017-04-24T09:23:16.670Z,1670
2017-04-24T09:24:16.372Z,1645
2017-04-24T09:25:16.655Z,1650
2017-04-24T09:26:16.642Z,1725
2017-04-24T09:27:16.399Z,1690
2017-04-24T09:28:16.640Z,1640
2017-04-24T09:29:16.307Z,1700
2017-04-24T09:30:16.600Z,1695
2017-04-24T09:31:16.576Z,1715
2017-04-24T09:32:16.275Z,1735
2017-04-24T09:33:16.604Z,1760
2017-04-24T09:34:16.557Z,1745
2017-04-24T09:35:16.601Z,1795
2017-04-24T09:36:16.516Z,1825
2017-04-24T09:37:16.514Z,1770
2017-04-24T09:38:16.492Z,1840
2017-04-24T09:39:16.495Z,1845
2017-04-24T09:40:16.469Z,1870
2017-04-24T09:41:16.162Z,1880
2017-04-24T09:42:16.456Z,1885
2017-04-24T09:43:16.439Z,1875
2017-04-24T09:44:16.432Z,1820
2017-04-24T09:45:16.124Z,1795
2017-04-24T09:46:16.422Z,1745
2017-04-24T09:47:16.151Z,1660
2017-04-24T09:48:16.388Z,1570
2017-04-24T09:49:16.379Z,1670
2017-04-24T09:50:16.356Z,1695
2017-04-24T09:51:16.364Z,1740
2017-04-24T09:52:16.345Z,1735
2017-04-24T09:53:16.334Z,1740
2017-04-24T09:54:16.571Z,1645
2017-04-24T09:55:16.320Z,1820
2017-04-24T09:56:16.301Z,1790
2017-04-24T09:57:15.980Z,1765
2017-04-24T09:58:16.277Z,1900
2017-04-24T09:59:16.270Z,1855
2017-04-24T10:00:16.259Z,1815
2017-04-24T10:01:16.246Z,1740
2017-04-24T10:02:16.240Z,1650
2017-04-24T10:03:15.917Z,1885
2017-04-24T10:04:16.249Z,1995
2017-04-24T10:05:16.207Z,2095
2017-04-24T10:06:16.186Z,2150
2017-04-24T10:07:15.870Z,2090
2017-04-24T10:08:16.170Z,1920
2017-04-24T10:09:16.155Z,1500
2017-04-24T10:10:16.136Z,1730
2017-04-24T10:11:16.140Z,1320
2017-04-24T10:12:16.122Z,2075
2017-04-24T10:13:16.145Z,1980
2017-04-24T10:14:15.801Z,2065
2017-04-24T10:15:16.147Z,2030
2017-04-24T10:16:16.071Z,2110
2017-04-24T10:17:16.063Z,2180
2017-04-24T10:18:15.757Z,2100
2017-04-24T10:19:16.060Z,1945
2017-04-24T10:20:16.043Z,2125
2017-04-24T10:21:16.034Z,2075
2017-04-24T10:22:16.022Z,2270
2017-04-24T10:23:16.009Z,1575
2017-04-24T10:24:15.988Z,2280
2017-04-24T10:25:15.983Z,2180
2017-04-24T10:26:15.670Z,1455
2017-04-24T10:27:15.984Z,1245
2017-04-24T10:28:15.963Z,1255
2017-04-24T10:29:16.134Z,1620
2017-04-24T10:30:15.979Z,2235
2017-04-24T10:31:15.923Z,1780
2017-04-24T10:32:15.918Z,1715
2017-04-24T10:33:15.917Z,885
2017-04-24T10:34:15.902Z,1050
2017-04-24T10:35:15.888Z,810
2017-04-24T10:36:15.875Z,690
2017-04-24T10:37:15.862Z,695
2017-04-24T10:38:15.847Z,715
2017-04-24T10:39:15.852Z,745
2017-04-24T10:40:15.525Z,685
2017-04-24T10:41:15.807Z,695
2017-04-24T10:42:15.809Z,745
2017-04-24T10:43:15.783Z,760
2017-04-24T10:44:15.776Z,785
2017-04-24T10:45:15.462Z,765
2017-04-24T10:46:15.695Z,825
2017-04-24T10:47:15.978Z,810
2017-04-24T10:48:15.407Z,770
2017-04-24T10:49:15.700Z,710
2017-04-24T10:50:15.703Z,680
2017-04-24T10:51:15.367Z,735
2017-04-24T10:52:15.647Z,755
2017-04-24T10:53:15.337Z,725
2017-04-24T10:54:15.624Z,750
2017-04-24T10:55:15.654Z,680
2017-04-24T10:56:15.601Z,670
2017-04-24T10:57:15.275Z,615
2017-04-24T10:58:15.551Z,565
2017-04-24T10:59:15.237Z,550
2017-04-24T11:00:15.524Z,595
2017-04-24T11:01:15.501Z,640
2017-04-24T11:02:15.194Z,620
2017-04-24T11:03:15.487Z,530
2017-04-24T11:04:15.471Z,480
2017-04-24T11:05:15.444Z,460
2017-04-24T11:06:15.117Z,515
2017-04-24T11:07:15.398Z,600
2017-04-24T11:08:15.392Z,615
2017-04-24T11:09:15.395Z,610
2017-04-24T11:10:15.054Z,595
2017-04-24T11:11:15.339Z,530
2017-04-24T11:12:15.321Z,495
2017-04-24T11:13:15.203Z,485
2017-04-24T11:14:15.283Z,460
2017-04-24T11:15:14.956Z,465
2017-04-24T11:16:15.251Z,475
2017-04-24T11:17:15.238Z,510
2017-04-24T11:18:14.926Z,565
2017-04-24T11:19:15.412Z,610
2017-04-24T11:20:15.173Z,595
2017-04-24T11:21:15.170Z,535
2017-04-24T11:22:15.144Z,570
2017-04-24T11:23:15.149Z,595
2017-04-24T11:24:15.102Z,600
2017-04-24T11:25:15.095Z,565
2017-04-24T11:26:15.077Z,550
2017-04-24T11:27:15.042Z,515
2017-04-24T11:28:15.031Z,490
2017-04-24T11:29:15.019Z,495
2017-04-24T11:30:15.195Z,490
2017-04-24T11:31:14.971Z,470
2017-04-24T11:32:14.954Z,470
2017-04-24T11:33:14.949Z,415
2017-04-24T11:34:14.919Z,390
2017-04-24T11:35:14.906Z,410
2017-04-24T11:36:14.883Z,430
2017-04-24T11:37:14.903Z,460
2017-04-24T11:38:14.867Z,420
2017-04-24T11:39:14.830Z,390
2017-04-24T11:40:14.806Z,365
2017-04-24T11:41:14.796Z,365
2017-04-24T11:42:14.573Z,390
2017-04-24T11:43:14.752Z,430
2017-04-24T11:44:15.041Z,410
2017-04-24T11:45:14.714Z,400
2017-04-24T11:46:14.694Z,400
2017-04-24T11:47:14.377Z,380
2017-04-24T11:48:14.359Z,355
2017-04-24T11:49:14.129Z,400
2017-04-24T11:50:14.041Z,455
2017-04-24T11:51:14.290Z,440
2017-04-24T11:52:13.974Z,430
2017-04-24T11:53:14.578Z,345
2017-04-24T11:54:14.575Z,345
2017-04-24T11:55:14.540Z,425
2017-04-24T11:56:14.503Z,420
2017-04-24T11:57:14.201Z,445
2017-04-24T11:58:14.516Z,470
2017-04-24T11:59:14.453Z,485
2017-04-24T12:00:14.434Z,450
2017-04-24T12:01:14.409Z,495
2017-04-24T12:02:14.391Z,505
2017-04-24T12:03:14.383Z,445
2017-04-24T12:04:14.351Z,460
2017-04-24T12:05:14.340Z,490
2017-04-24T12:06:14.018Z,490
2017-04-24T12:07:14.299Z,425
2017-04-24T12:08:14.281Z,370
2017-04-24T12:09:14.312Z,350
2017-04-24T12:10:13.942Z,335
2017-04-24T12:11:14.134Z,330
2017-04-24T12:12:13.899Z,350
2017-04-24T12:13:14.181Z,400
2017-04-24T12:14:14.169Z,430
2017-04-24T12:15:13.855Z,425
2017-04-24T12:16:14.128Z,480
2017-04-24T12:17:13.816Z,540
2017-04-24T12:18:14.082Z,520
2017-04-24T12:19:14.077Z,470
2017-04-24T12:20:13.761Z,500
2017-04-24T12:21:14.022Z,490
2017-04-24T12:22:13.715Z,530
2017-04-24T12:23:13.990Z,570
2017-04-24T12:24:13.967Z,505
2017-04-24T12:25:13.960Z,505
2017-04-24T12:26:13.924Z,405
2017-04-24T12:27:13.641Z,360
2017-04-24T12:28:13.898Z,450
2017-04-24T12:29:13.882Z,485
2017-04-24T12:30:13.860Z,430
2017-04-24T12:31:13.852Z,390
2017-04-24T12:32:13.835Z,425
2017-04-24T12:33:13.801Z,430
2017-04-24T12:34:13.788Z,460
2017-04-24T12:35:13.465Z,540
2017-04-24T12:36:13.742Z,465
2017-04-24T12:37:13.424Z,475
2017-04-24T12:38:13.972Z,420
2017-04-24T12:39:13.685Z,355
2017-04-24T12:40:13.663Z,385
2017-04-24T12:41:13.656Z,450
2017-04-24T12:42:13.330Z,470
2017-04-24T12:43:13.624Z,490
2017-04-24T12:44:13.297Z,520
2017-04-24T12:45:13.569Z,460
2017-04-24T12:46:13.568Z,370
2017-04-24T12:47:13.544Z,340
2017-04-24T12:48:13.515Z,345
2017-04-24T12:49:13.194Z,335
2017-04-24T12:50:13.477Z,345
2017-04-24T12:51:13.452Z,345
2017-04-24T12:52:13.131Z,315
2017-04-24T12:53:12.514Z,305
2017-04-24T12:54:13.416Z,315
2017-04-24T12:55:13.391Z,330
2017-04-24T12:56:13.363Z,345
2017-04-24T12:57:13.352Z,395
2017-04-24T12:58:13.381Z,450
2017-04-24T12:59:13.306Z,430
2017-04-24T13:00:13.292Z,425
2017-04-24T13:01:13.264Z,430
2017-04-24T13:02:13.241Z,455
2017-04-24T13:03:13.223Z,480
2017-04-24T13:04:13.208Z,480
2017-04-24T13:05:13.189Z,445
2017-04-24T13:06:12.873Z,420
2017-04-24T13:07:13.154Z,405
2017-04-24T13:08:13.139Z,400
2017-04-24T13:09:12.809Z,415
2017-04-24T13:10:13.092Z,410
2017-04-24T13:11:12.769Z,390
2017-04-24T13:12:13.054Z,395
2017-04-24T13:13:12.744Z,355
2017-04-24T13:14:13.015Z,355
2017-04-24T13:15:12.994Z,370
2017-04-24T13:16:12.972Z,385
2017-04-24T13:17:12.955Z,435
2017-04-24T13:18:12.641Z,455
2017-04-24T13:19:12.672Z,460
2017-04-24T13:20:12.616Z,420
2017-04-24T13:21:12.871Z,365
2017-04-24T13:22:12.868Z,335
2017-04-24T13:23:12.845Z,350
2017-04-24T13:24:12.822Z,365
2017-04-24T13:25:12.812Z,345
2017-04-24T13:26:12.770Z,280
2017-04-24T13:27:12.759Z,205
2017-04-24T13:28:12.755Z,170
2017-04-24T13:29:12.428Z,155
2017-04-24T13:30:12.707Z,150
2017-04-24T13:31:12.690Z,150
2017-04-24T13:32:12.694Z,145
2017-04-24T13:33:12.650Z,135
2017-04-24T13:34:12.577Z,185
2017-04-24T13:35:12.612Z,230
2017-04-24T13:36:12.643Z,230
2017-04-24T13:37:12.583Z,190
2017-04-24T13:38:12.558Z,140
2017-04-24T13:39:11.929Z,140
2017-04-24T13:40:12.204Z,155
2017-04-24T13:41:12.192Z,145
2017-04-24T13:42:11.867Z,130
2017-04-24T13:43:12.160Z,115
2017-04-24T13:44:12.480Z,120
2017-04-24T13:45:12.409Z,180
2017-04-24T13:46:12.388Z,225
2017-04-24T13:47:12.380Z,215
2017-04-24T13:48:12.063Z,220
2017-04-24T13:49:12.326Z,200
2017-04-24T13:50:12.308Z,165
2017-04-24T13:51:11.989Z,145
2017-04-24T13:52:12.300Z,130
2017-04-24T13:53:12.259Z,115
2017-04-24T13:54:12.247Z,100
2017-04-24T13:55:11.613Z,100
2017-04-24T13:56:12.195Z,95
2017-04-24T13:57:12.173Z,100
2017-04-24T13:58:12.179Z,90
2017-04-24T13:59:12.124Z,90
2017-04-24T14:00:12.115Z,80